createdAt,value
2023-02-06T00:01:21.114Z,62.55
2023-02-06T00:03:48.378Z,62.57
2023-02-06T00:06:15.745Z,62.63
2023-02-06T00:08:42.678Z,62.78
2023-02-06T00:11:13.440Z,62.98
2023-02-06T00:13:40.189Z,63.10
2023-02-06T00:16:16.324Z,63.10
2023-02-06T00:18:43.022Z,62.77
2023-02-06T00:21:10.018Z,62.80
2023-02-06T00:23:36.955Z,62.90
2023-02-06T00:26:04.076Z,62.71
2023-02-06T00:28:30.711Z,62.69
2023-02-06T00:30:57.442Z,62.71
2023-02-06T00:33:24.175Z,62.70
2023-02-06T00:35:50.877Z,62.55
2023-02-06T00:38:17.474Z,62.64
2023-02-06T00:40:44.351Z,62.54
2023-02-06T00:43:10.926Z,62.29
2023-02-06T00:45:37.716Z,62.32
2023-02-06T00:48:04.608Z,62.23
2023-02-06T00:50:31.278Z,62.20
2023-02-06T00:52:57.904Z,62.02
2023-02-06T00:55:24.602Z,62.18
2023-02-06T00:57:51.247Z,61.91
2023-02-06T01:00:18.404Z,61.80
2023-02-06T01:02:45.249Z,61.99
2023-02-06T01:05:11.989Z,62.01
2023-02-06T01:07:40.365Z,62.16
2023-02-06T01:10:09.172Z,62.26
2023-02-06T01:12:37.101Z,62.31
2023-02-06T01:15:09.659Z,62.41
2023-02-06T01:17:37.802Z,62.41
2023-02-06T01:20:06.459Z,62.41
2023-02-06T01:22:34.805Z,62.50
2023-02-06T01:25:01.755Z,62.49
2023-02-06T01:27:28.770Z,62.45
2023-02-06T01:29:55.492Z,62.48
2023-02-06T01:32:22.123Z,62.75
2023-02-06T01:34:48.707Z,62.54
2023-02-06T01:37:15.403Z,62.79
2023-02-06T01:39:42.061Z,62.50
2023-02-06T01:42:12.599Z,62.53
2023-02-06T01:44:39.828Z,62.53
2023-02-06T01:47:06.477Z,62.59
2023-02-06T01:49:38.105Z,62.54
2023-02-06T01:52:14.441Z,62.50
2023-02-06T01:54:43.410Z,62.39
2023-02-06T01:57:12.222Z,62.56
2023-02-06T01:59:42.384Z,62.66
2023-02-06T02:02:09.045Z,62.87
2023-02-06T02:04:35.724Z,62.61
2023-02-06T02:07:17.233Z,62.83
2023-02-06T02:09:43.867Z,62.75
2023-02-06T02:12:11.265Z,62.83
2023-02-06T02:14:41.227Z,62.86
2023-02-06T02:17:16.759Z,62.95
2023-02-06T02:20:05.662Z,63.17
2023-02-06T02:23:09.484Z,63.25
2023-02-06T02:26:13.401Z,63.23
2023-02-06T02:28:45.741Z,63.21
2023-02-06T02:31:31.541Z,62.87
2023-02-06T02:34:29.874Z,63.07
2023-02-06T02:37:11.423Z,62.82
2023-02-06T02:40:31.139Z,62.72
2023-02-06T02:43:13.162Z,62.77
2023-02-06T02:45:47.293Z,62.83
2023-02-06T02:48:36.131Z,62.73
2023-02-06T02:51:04.146Z,62.92
2023-02-06T02:53:31.676Z,62.79
2023-02-06T02:56:00.176Z,62.76
2023-02-06T02:58:30.366Z,62.82
2023-02-06T03:01:02.627Z,62.87
2023-02-06T03:03:31.608Z,62.84
2023-02-06T03:06:30.890Z,62.79
2023-02-06T03:09:05.891Z,62.88
2023-02-06T03:11:32.923Z,62.99
2023-02-06T03:14:09.339Z,62.97
2023-02-06T03:16:47.782Z,63.09
2023-02-06T03:19:25.051Z,63.21
2023-02-06T03:21:51.834Z,63.24
2023-02-06T03:24:28.841Z,63.11
2023-02-06T03:27:00.504Z,63.29
2023-02-06T03:29:31.633Z,63.09
2023-02-06T03:32:02.675Z,63.22
2023-02-06T03:34:33.375Z,63.10
2023-02-06T03:37:00.244Z,63.24
2023-02-06T03:39:27.171Z,63.35
2023-02-06T03:41:56.979Z,63.29
2023-02-06T03:44:30.372Z,63.35
2023-02-06T03:47:00.172Z,63.51
2023-02-06T03:49:30.507Z,63.34
2023-02-06T03:52:03.547Z,63.31
2023-02-06T03:54:32.397Z,63.38
2023-02-06T03:57:02.818Z,63.60
2023-02-06T03:59:30.096Z,63.96
2023-02-06T04:01:59.343Z,63.80
2023-02-06T04:04:30.795Z,63.27
2023-02-06T04:07:21.181Z,63.56
2023-02-06T04:09:48.003Z,63.43
2023-02-06T04:12:15.414Z,63.33
2023-02-06T04:14:45.263Z,63.12
2023-02-06T04:17:12.321Z,63.33
2023-02-06T04:19:39.922Z,63.29
2023-02-06T04:22:07.185Z,63.28
2023-02-06T04:24:33.971Z,63.25
2023-02-06T04:27:00.673Z,63.35
2023-02-06T04:29:27.424Z,63.41
2023-02-06T04:31:54.071Z,63.27
2023-02-06T04:34:20.748Z,63.55
2023-02-06T04:36:47.386Z,63.53
2023-02-06T04:39:14.027Z,63.85
2023-02-06T04:41:40.706Z,63.81
2023-02-06T04:44:07.328Z,63.80
2023-02-06T04:46:34.014Z,63.95
2023-02-06T04:49:00.630Z,64.20
2023-02-06T04:51:27.221Z,64.11
2023-02-06T04:53:53.808Z,64.02
2023-02-06T04:56:20.721Z,63.89
2023-02-06T04:58:47.690Z,64.25
2023-02-06T05:01:16.821Z,64.30
2023-02-06T05:03:43.897Z,64.41
2023-02-06T05:06:10.545Z,64.47
2023-02-06T05:08:37.962Z,64.66
2023-02-06T05:11:05.060Z,64.71
2023-02-06T05:13:31.713Z,64.54
2023-02-06T05:16:04.269Z,64.47
2023-02-06T05:18:30.890Z,64.39
2023-02-06T05:20:57.537Z,64.42
2023-02-06T05:23:24.209Z,64.23
2023-02-06T05:25:50.938Z,64.36
2023-02-06T05:28:18.274Z,64.17
2023-02-06T05:30:45.321Z,64.10
2023-02-06T05:33:12.335Z,64.30
2023-02-06T05:35:40.115Z,64.06
2023-02-06T05:38:06.747Z,64.18
2023-02-06T05:40:33.328Z,64.17
2023-02-06T05:43:00.036Z,64.19
2023-02-06T05:45:26.670Z,64.17
2023-02-06T05:47:54.586Z,64.11
2023-02-06T05:50:21.389Z,64.17
2023-02-06T05:52:48.026Z,64.30
2023-02-06T05:55:17.003Z,64.47
2023-02-06T05:57:44.484Z,64.48
2023-02-06T06:00:12.661Z,64.29
2023-02-06T06:02:39.640Z,64.57
2023-02-06T06:05:06.906Z,64.76
2023-02-06T06:07:33.652Z,64.60
2023-02-06T06:10:00.619Z,64.74
2023-02-06T06:12:27.302Z,64.89
2023-02-06T06:14:53.956Z,64.95
2023-02-06T06:17:21.287Z,64.73
2023-02-06T06:19:47.939Z,64.71
2023-02-06T06:22:14.916Z,64.67
2023-02-06T06:24:41.678Z,64.65
2023-02-06T06:27:10.757Z,64.43
2023-02-06T06:29:37.850Z,64.72
2023-02-06T06:32:06.050Z,64.69
2023-02-06T06:34:32.753Z,64.75
2023-02-06T06:36:59.415Z,64.42
2023-02-06T06:39:26.135Z,64.46
2023-02-06T06:41:52.783Z,64.65
2023-02-06T06:44:19.457Z,64.65
2023-02-06T06:46:46.471Z,64.56
2023-02-06T06:49:13.245Z,64.82
2023-02-06T06:51:39.882Z,64.78
2023-02-06T06:54:06.690Z,64.70
2023-02-06T06:56:33.312Z,65.01
2023-02-06T06:58:59.953Z,64.78
2023-02-06T07:01:26.703Z,64.55
2023-02-06T07:03:53.398Z,64.82
2023-02-06T07:06:20.072Z,64.75
2023-02-06T07:08:46.694Z,65.11
2023-02-06T07:11:14.977Z,65.33
2023-02-06T07:13:42.320Z,65.50
2023-02-06T07:16:09.401Z,65.36
2023-02-06T07:18:36.083Z,65.23
2023-02-06T07:21:03.568Z,65.17
2023-02-06T07:23:30.308Z,65.06
2023-02-06T07:26:02.229Z,64.93
2023-02-06T07:28:30.150Z,64.81
2023-02-06T07:31:01.327Z,64.97
2023-02-06T07:33:28.626Z,64.66
2023-02-06T07:35:55.417Z,64.73
2023-02-06T07:38:22.335Z,64.77
2023-02-06T07:40:49.047Z,64.75
2023-02-06T07:43:16.158Z,64.74
2023-02-06T07:45:42.823Z,64.97
2023-02-06T07:48:09.972Z,64.74
2023-02-06T07:50:36.918Z,64.73
2023-02-06T07:53:03.565Z,64.64
2023-02-06T07:55:30.261Z,64.49
2023-02-06T07:57:56.915Z,64.25
2023-02-06T08:00:23.615Z,64.33
2023-02-06T08:02:51.092Z,64.57
2023-02-06T08:05:18.453Z,64.62
2023-02-06T08:07:45.266Z,64.54
2023-02-06T08:10:11.905Z,64.70
2023-02-06T08:12:38.552Z,64.62
2023-02-06T08:15:05.539Z,64.87
2023-02-06T08:17:32.172Z,64.89
2023-02-06T08:19:58.831Z,65.15
2023-02-06T08:22:25.572Z,64.79
2023-02-06T08:24:52.508Z,64.70
2023-02-06T08:27:19.147Z,64.64
2023-02-06T08:29:46.055Z,64.78
2023-02-06T08:32:12.723Z,64.70
2023-02-06T08:34:40.128Z,64.10
2023-02-06T08:37:06.915Z,64.17
2023-02-06T08:39:33.584Z,63.95
2023-02-06T08:42:00.279Z,63.34
2023-02-06T08:44:26.861Z,62.83
2023-02-06T08:47:08.897Z,62.80
2023-02-06T08:49:36.520Z,62.58
2023-02-06T08:52:03.436Z,62.62
2023-02-06T08:54:30.186Z,62.48
2023-02-06T08:56:58.451Z,61.79
2023-02-06T08:59:25.216Z,61.86
2023-02-06T09:01:52.261Z,61.91
2023-02-06T09:04:19.560Z,61.87
2023-02-06T09:06:50.329Z,61.57
2023-02-06T09:09:17.075Z,61.49
2023-02-06T09:11:44.118Z,61.88
2023-02-06T09:14:15.624Z,61.69
2023-02-06T09:16:42.373Z,60.80
2023-02-06T09:19:10.877Z,59.08
2023-02-06T09:21:38.241Z,58.88
2023-02-06T09:24:08.640Z,58.68
2023-02-06T09:26:44.770Z,58.77
2023-02-06T09:29:20.338Z,57.91
2023-02-06T09:31:47.814Z,57.71
2023-02-06T09:34:14.631Z,57.69
2023-02-06T09:36:41.948Z,57.47
2023-02-06T09:39:09.544Z,57.24
2023-02-06T09:41:44.746Z,56.83
2023-02-06T09:44:24.610Z,56.83
2023-02-06T09:46:56.518Z,57.00
2023-02-06T09:49:39.726Z,57.06
2023-02-06T09:52:25.311Z,55.37
2023-02-06T09:54:59.212Z,55.79
2023-02-06T09:57:31.393Z,56.21
2023-02-06T10:00:24.064Z,56.20
2023-02-06T10:03:15.308Z,54.97
2023-02-06T10:05:54.256Z,55.40
2023-02-06T10:08:52.325Z,55.55
2023-02-06T10:11:48.041Z,54.98
2023-02-06T10:14:22.360Z,54.49
2023-02-06T10:17:02.851Z,55.40
2023-02-06T10:19:43.814Z,56.02
2023-02-06T10:22:28.696Z,55.75
2023-02-06T10:25:21.114Z,55.18
2023-02-06T10:27:54.826Z,55.50
2023-02-06T10:30:35.803Z,55.72
2023-02-06T10:33:25.234Z,55.96
2023-02-06T10:36:08.600Z,55.81
2023-02-06T10:38:35.137Z,55.57
2023-02-06T10:41:34.785Z,55.67
2023-02-06T10:44:18.396Z,55.38
2023-02-06T10:46:51.003Z,55.47
2023-02-06T10:49:53.301Z,55.59
2023-02-06T10:52:32.648Z,55.35
2023-02-06T10:55:32.823Z,55.16
2023-02-06T10:58:16.465Z,55.60
2023-02-06T11:00:46.478Z,55.90
2023-02-06T11:03:20.437Z,55.93
2023-02-06T11:05:48.101Z,55.38
2023-02-06T11:08:31.897Z,55.77
2023-02-06T11:11:25.362Z,55.26
2023-02-06T11:14:05.502Z,55.21
2023-02-06T11:16:36.216Z,55.43
2023-02-06T11:19:31.334Z,55.55
2023-02-06T11:22:27.037Z,55.20
2023-02-06T11:24:59.738Z,55.30
2023-02-06T11:27:27.769Z,55.42
2023-02-06T11:29:55.086Z,55.43
2023-02-06T11:32:52.759Z,55.23
2023-02-06T11:35:47.451Z,54.98
2023-02-06T11:38:23.080Z,55.24
2023-02-06T11:41:16.512Z,55.00
2023-02-06T11:43:43.056Z,55.14
2023-02-06T11:46:24.558Z,55.48
2023-02-06T11:48:58.678Z,55.14
2023-02-06T11:51:44.297Z,55.17
2023-02-06T11:54:20.908Z,55.15
2023-02-06T11:57:19.113Z,55.02
2023-02-06T12:00:00.842Z,54.89
2023-02-06T12:02:39.162Z,54.78
2023-02-06T12:05:13.369Z,54.91
2023-02-06T12:08:02.898Z,54.93
2023-02-06T12:10:35.033Z,54.26
2023-02-06T12:13:28.033Z,55.04
2023-02-06T12:16:00.908Z,54.98
2023-02-06T12:18:37.077Z,55.04
2023-02-06T12:21:13.414Z,54.94
2023-02-06T12:23:45.958Z,55.00
2023-02-06T12:26:22.647Z,55.29
2023-02-06T12:29:11.948Z,55.34
2023-02-06T12:31:47.657Z,55.54
2023-02-06T12:34:20.164Z,55.42
2023-02-06T12:37:08.895Z,55.43
2023-02-06T12:39:35.638Z,55.69
2023-02-06T12:42:14.565Z,55.27
2023-02-06T12:44:54.116Z,55.43
2023-02-06T12:47:42.339Z,54.56
2023-02-06T12:50:20.237Z,54.54
2023-02-06T12:53:19.480Z,55.06
2023-02-06T12:55:55.177Z,55.30
2023-02-06T12:58:42.136Z,55.14
2023-02-06T13:01:34.680Z,54.86
2023-02-06T13:04:33.102Z,54.96
2023-02-06T13:07:06.722Z,55.12
2023-02-06T13:09:59.537Z,55.18
2023-02-06T13:12:31.115Z,55.05
2023-02-06T13:15:02.247Z,55.04
2023-02-06T13:17:35.763Z,53.94
2023-02-06T13:20:05.483Z,54.52
2023-02-06T13:22:45.866Z,54.57
2023-02-06T13:25:30.701Z,54.79
2023-02-06T13:27:59.481Z,54.58
2023-02-06T13:30:28.948Z,54.68
2023-02-06T13:33:14.396Z,54.57
2023-02-06T13:36:02.722Z,54.21
2023-02-06T13:38:35.455Z,53.91
2023-02-06T13:41:17.116Z,53.94
2023-02-06T13:44:22.425Z,53.99
2023-02-06T13:47:08.699Z,53.76
2023-02-06T13:50:19.382Z,53.88
2023-02-06T13:53:01.219Z,53.34
2023-02-06T13:55:43.151Z,53.13
2023-02-06T13:58:24.278Z,53.28
2023-02-06T14:00:52.256Z,52.43
2023-02-06T14:03:32.411Z,52.70
2023-02-06T14:06:11.460Z,52.60
2023-02-06T14:09:01.760Z,52.93
2023-02-06T14:12:06.593Z,52.96
2023-02-06T14:14:53.388Z,51.91
2023-02-06T14:17:39.192Z,52.74
2023-02-06T14:20:33.358Z,53.07
2023-02-06T14:24:11.216Z,53.12
2023-02-06T14:27:03.003Z,52.22
2023-02-06T14:29:59.629Z,52.34
2023-02-06T14:32:48.274Z,52.77
2023-02-06T14:35:14.876Z,53.39
2023-02-06T14:38:26.030Z,53.41
2023-02-06T14:40:55.543Z,53.45
2023-02-06T14:43:26.125Z,53.76
2023-02-06T14:46:07.018Z,53.85
2023-02-06T14:48:43.783Z,53.71
2023-02-06T14:51:26.735Z,53.58
2023-02-06T14:54:05.518Z,52.82
2023-02-06T14:56:38.008Z,53.43
2023-02-06T14:59:13.701Z,53.18
2023-02-06T15:01:41.883Z,53.64
2023-02-06T15:04:18.420Z,53.58
2023-02-06T15:06:56.529Z,53.81
2023-02-06T15:09:31.338Z,53.37
2023-02-06T15:12:04.239Z,53.72
2023-02-06T15:14:33.746Z,53.66
2023-02-06T15:17:02.737Z,53.57
2023-02-06T15:19:32.349Z,54.22
2023-02-06T15:22:11.687Z,54.58
2023-02-06T15:25:12.452Z,54.78
2023-02-06T15:27:39.599Z,54.91
2023-02-06T15:30:22.304Z,54.81
2023-02-06T15:32:52.090Z,54.83
2023-02-06T15:35:27.766Z,55.01
2023-02-06T15:37:55.210Z,54.96
2023-02-06T15:40:32.227Z,54.90
2023-02-06T15:43:00.253Z,55.18
2023-02-06T15:45:34.543Z,55.07
2023-02-06T15:48:11.722Z,55.34
2023-02-06T15:50:38.818Z,55.35
2023-02-06T15:53:29.376Z,55.45
2023-02-06T15:55:59.159Z,55.40
2023-02-06T15:58:26.397Z,55.36
2023-02-06T16:00:55.680Z,55.38
2023-02-06T16:03:26.057Z,55.51
2023-02-06T16:05:54.269Z,55.50
2023-02-06T16:08:39.045Z,55.39
2023-02-06T16:11:28.436Z,55.46
2023-02-06T16:13:55.184Z,55.31
2023-02-06T16:16:24.359Z,55.45
2023-02-06T16:18:55.130Z,55.34
2023-02-06T16:21:29.013Z,55.22
2023-02-06T16:24:00.093Z,55.40
2023-02-06T16:26:29.843Z,55.40
2023-02-06T16:29:08.309Z,55.64
2023-02-06T16:31:38.096Z,55.61
2023-02-06T16:34:21.895Z,55.39
2023-02-06T16:36:48.675Z,55.58
2023-02-06T16:39:15.243Z,55.38
2023-02-06T16:41:42.926Z,55.41
2023-02-06T16:44:14.836Z,55.46
2023-02-06T16:46:41.659Z,55.46
2023-02-06T16:49:13.936Z,55.60
2023-02-06T16:51:41.664Z,55.56
2023-02-06T16:54:09.787Z,55.72
2023-02-06T16:56:38.605Z,55.69
2023-02-06T16:59:05.277Z,55.53
2023-02-06T17:01:33.003Z,55.56
2023-02-06T17:03:59.736Z,55.48
2023-02-06T17:06:28.927Z,55.61
2023-02-06T17:09:03.474Z,55.48
2023-02-06T17:11:31.422Z,55.57
2023-02-06T17:13:58.448Z,55.72
2023-02-06T17:16:26.597Z,55.47
2023-02-06T17:18:54.382Z,55.68
2023-02-06T17:21:23.536Z,56.17
2023-02-06T17:23:51.161Z,56.18
2023-02-06T17:26:20.619Z,56.03
2023-02-06T17:28:48.528Z,56.37
2023-02-06T17:31:15.666Z,56.90
2023-02-06T17:33:42.501Z,56.75
2023-02-06T17:36:29.530Z,56.91
2023-02-06T17:38:59.052Z,56.86
2023-02-06T17:41:27.356Z,56.94
2023-02-06T17:43:54.092Z,56.82
2023-02-06T17:46:20.984Z,56.78
2023-02-06T17:48:47.965Z,56.84
2023-02-06T17:51:15.091Z,56.65
2023-02-06T17:53:41.795Z,56.84
2023-02-06T17:56:14.955Z,56.71
2023-02-06T17:58:42.793Z,56.83
2023-02-06T18:01:18.595Z,57.00
2023-02-06T18:03:47.879Z,57.13
2023-02-06T18:06:14.985Z,57.13
2023-02-06T18:08:41.777Z,57.17
2023-02-06T18:11:14.237Z,57.22
2023-02-06T18:13:42.770Z,57.40
2023-02-06T18:16:19.107Z,57.27
2023-02-06T18:18:46.546Z,57.52
2023-02-06T18:21:13.781Z,57.65
2023-02-06T18:23:40.424Z,57.68
2023-02-06T18:26:09.441Z,57.85
2023-02-06T18:28:38.136Z,58.21
2023-02-06T18:31:06.568Z,58.21
2023-02-06T18:33:35.275Z,58.10
2023-02-06T18:36:06.356Z,58.10
2023-02-06T18:38:33.342Z,58.55
2023-02-06T18:41:05.212Z,58.32
2023-02-06T18:43:32.791Z,58.80
2023-02-06T18:46:06.916Z,58.55
2023-02-06T18:48:33.533Z,58.55
2023-02-06T18:51:00.952Z,58.90
2023-02-06T18:53:27.733Z,58.71
2023-02-06T18:55:58.825Z,58.96
2023-02-06T18:58:25.432Z,58.99
2023-02-06T19:00:52.084Z,59.18
2023-02-06T19:03:18.660Z,59.32
2023-02-06T19:05:45.341Z,59.32
2023-02-06T19:08:11.916Z,59.42
2023-02-06T19:10:40.142Z,59.57
2023-02-06T19:13:06.907Z,59.58
2023-02-06T19:15:35.988Z,59.78
2023-02-06T19:18:04.512Z,59.82
2023-02-06T19:20:31.542Z,59.79
2023-02-06T19:22:58.265Z,59.68
2023-02-06T19:25:25.028Z,59.69
2023-02-06T19:27:51.745Z,59.70
2023-02-06T19:30:18.490Z,59.93
2023-02-06T19:32:45.213Z,60.30
2023-02-06T19:35:12.053Z,60.16
2023-02-06T19:37:38.916Z,60.14
2023-02-06T19:40:06.043Z,60.33
2023-02-06T19:42:32.845Z,60.37
2023-02-06T19:44:59.896Z,60.59
2023-02-06T19:47:26.533Z,60.46
2023-02-06T19:49:53.384Z,60.45
2023-02-06T19:52:20.370Z,60.42
2023-02-06T19:54:47.887Z,60.12
2023-02-06T19:57:16.066Z,59.94
2023-02-06T19:59:42.821Z,60.01
2023-02-06T20:02:13.018Z,59.94
2023-02-06T20:04:40.300Z,60.11
2023-02-06T20:07:07.110Z,60.08
2023-02-06T20:09:34.458Z,60.30
2023-02-06T20:12:01.098Z,60.16
2023-02-06T20:14:28.024Z,60.17
2023-02-06T20:16:55.426Z,60.38
2023-02-06T20:19:26.994Z,60.34
2023-02-06T20:21:57.955Z,60.32
2023-02-06T20:24:30.226Z,60.09
2023-02-06T20:27:00.739Z,60.19
2023-02-06T20:29:31.403Z,60.49
2023-02-06T20:31:58.725Z,60.87
2023-02-06T20:34:26.952Z,60.58
2023-02-06T20:36:55.495Z,60.87
2023-02-06T20:39:22.537Z,60.84
2023-02-06T20:41:50.680Z,60.67
2023-02-06T20:44:19.764Z,61.00
2023-02-06T20:46:46.825Z,60.91
2023-02-06T20:49:16.400Z,60.83
2023-02-06T20:51:43.484Z,61.13
2023-02-06T20:54:13.516Z,61.11
2023-02-06T20:56:40.879Z,61.22
2023-02-06T20:59:11.949Z,60.81
2023-02-06T21:01:40.041Z,61.10
2023-02-06T21:04:09.126Z,60.99
2023-02-06T21:06:37.259Z,61.26
2023-02-06T21:09:06.040Z,61.25
2023-02-06T21:11:36.556Z,61.29
2023-02-06T21:14:05.413Z,61.29
2023-02-06T21:16:34.182Z,61.44
2023-02-06T21:19:01.786Z,61.27
2023-02-06T21:21:28.635Z,61.58
2023-02-06T21:23:58.124Z,61.31
2023-02-06T21:26:25.200Z,61.43
2023-02-06T21:28:52.818Z,61.42
2023-02-06T21:31:22.852Z,61.44
2023-02-06T21:33:51.499Z,61.73
2023-02-06T21:36:18.940Z,61.80
2023-02-06T21:38:45.531Z,61.55
2023-02-06T21:41:18.154Z,61.77
2023-02-06T21:43:45.887Z,61.55
2023-02-06T21:46:13.518Z,61.79
2023-02-06T21:48:41.640Z,61.96
2023-02-06T21:51:13.524Z,61.86
2023-02-06T21:53:41.950Z,61.61
2023-02-06T21:56:21.232Z,61.39
2023-02-06T21:58:49.643Z,61.62
2023-02-06T22:01:19.066Z,61.61
2023-02-06T22:03:46.816Z,61.51
2023-02-06T22:06:14.628Z,61.44
2023-02-06T22:08:44.556Z,61.21
2023-02-06T22:11:16.786Z,61.22
2023-02-06T22:13:44.869Z,61.04
2023-02-06T22:16:14.518Z,60.91
2023-02-06T22:18:42.270Z,60.82
2023-02-06T22:21:12.286Z,60.84
2023-02-06T22:23:39.630Z,60.69
2023-02-06T22:26:08.081Z,60.55
2023-02-06T22:28:34.928Z,60.53
2023-02-06T22:31:13.334Z,60.41
2023-02-06T22:33:40.296Z,60.51
2023-02-06T22:36:10.416Z,60.41
2023-02-06T22:38:37.753Z,60.35
2023-02-06T22:41:07.991Z,60.30
2023-02-06T22:43:37.533Z,60.20
2023-02-06T22:46:05.535Z,60.05
2023-02-06T22:48:32.362Z,60.11
2023-02-06T22:51:07.919Z,59.96
2023-02-06T22:53:35.358Z,59.78
2023-02-06T22:56:24.254Z,60.03
2023-02-06T22:58:51.580Z,59.85
2023-02-06T23:01:21.298Z,59.86
2023-02-06T23:03:51.752Z,59.85
2023-02-06T23:06:18.886Z,59.85
2023-02-06T23:08:45.658Z,59.88
2023-02-06T23:11:13.233Z,59.81
2023-02-06T23:13:40.506Z,59.77
2023-02-06T23:16:08.386Z,59.70
2023-02-06T23:18:35.863Z,59.56
2023-02-06T23:21:08.435Z,59.54
2023-02-06T23:23:35.156Z,59.36
2023-02-06T23:26:02.078Z,59.16
2023-02-06T23:28:29.190Z,59.15
2023-02-06T23:30:55.848Z,59.08
2023-02-06T23:33:23.886Z,59.12
2023-02-06T23:35:50.955Z,59.04
2023-02-06T23:38:18.658Z,59.09
2023-02-06T23:40:46.177Z,58.82
2023-02-06T23:43:12.841Z,58.66
2023-02-06T23:45:41.429Z,58.59
2023-02-06T23:48:08.270Z,58.52
2023-02-06T23:50:35.880Z,58.52
2023-02-06T23:53:02.628Z,58.47
2023-02-06T23:55:30.621Z,58.54
2023-02-06T23:57:57.648Z,58.32
